»·PEaware :: N72C KINW-KPHX

N72C :: KINW-KPHX

FLIGHT INFORMATION

Flight Status: Arrived
Operator: Privately registered:
United States
More flights under this callsign
Pilot: Charles C. (26995)
Aircraft: SOCATA TBM-900
(TBM9)
More flights by this aircraft type
Origin: KINW Winslow-Lindbergh Regl
United States
Destination: KPHX Phoenix Sky Harbor Intl
United States
More flights between these airports :: More routes between these airports
Route: +INW JESSE2
File this flight plan on PilotEdge
Remarks:
Altitude:
(Current/Filed)
22,000ft
Speed:
(Current/Filed)
280kts
Departed: 04-Oct-20 09:16 AM
Arrived: 04-Oct-20 10:06 AM
Distance/Time
Traveled:
115nm/0:50
Distance/Time
To Go:
Arrived

Flight Plot

Page will automatically refresh every two minutes.

Flight plan parsing failed; only flown route is shown


Map Options




Map Legend


Flown Route
Filed Route
Departure Airport
Arrival Airport
Navaid (VOR, NDB)
Fix

Horizontal Profiles

Position Reports

Time Latitude Longitude Heading Altitude Ground
Speed
04-Oct-20 09:00 35.022741 -110.716310 187 4881ft 0kts
04-Oct-20 09:01 35.022741 -110.716310 187 4881ft 0kts
04-Oct-20 09:02 35.022741 -110.716310 187 4881ft 0kts
04-Oct-20 09:03 35.022741 -110.716310 187 4881ft 0kts
04-Oct-20 09:04 35.022741 -110.716310 187 4881ft 0kts
04-Oct-20 09:05 35.022741 -110.716310 187 4881ft 0kts
04-Oct-20 09:06 35.022741 -110.716310 187 4881ft 0kts
04-Oct-20 09:07 35.022741 -110.716310 187 4881ft 0kts
04-Oct-20 09:08 35.022741 -110.716310 187 4881ft 0kts
04-Oct-20 09:09 35.022740 -110.716310 187 4881ft 0kts
04-Oct-20 09:10 35.022883 -110.716699 309 4882ft 10kts
04-Oct-20 09:11 35.025545 -110.722543 296 4892ft 27kts
04-Oct-20 09:12 35.028277 -110.727752 5 4900ft 0kts
04-Oct-20 09:14 35.028277 -110.727752 5 4900ft 0kts
04-Oct-20 09:15 35.028640 -110.726791 115 4898ft 0kts
04-Oct-20 09:16 35.014567 -110.695860 117 5634ft 151kts
04-Oct-20 09:17 35.035826 -110.673719 311 7868ft 157kts
04-Oct-20 09:18 35.049784 -110.722620 278 10014ft 153kts
04-Oct-20 09:19 35.058740 -110.778222 275 11842ft 174kts
04-Oct-20 09:20 35.020585 -110.807458 196 13813ft 182kts
04-Oct-20 09:21 34.970387 -110.823470 196 15856ft 190kts
04-Oct-20 09:22 34.918494 -110.839688 197 17848ft 189kts
04-Oct-20 09:23 34.871101 -110.854460 197 20179ft 176kts
04-Oct-20 09:24 34.822617 -110.869594 197 21920ft 188kts
04-Oct-20 09:25 34.762778 -110.888306 196 22377ft 264kts
04-Oct-20 09:26 34.686169 -110.912017 196 22345ft 296kts
04-Oct-20 09:27 34.605216 -110.937071 195 22338ft 304kts
04-Oct-20 09:28 34.522699 -110.962562 195 22334ft 306kts
04-Oct-20 09:28 34.453981 -110.983815 195 22331ft 306kts
04-Oct-20 09:30 34.357545 -111.013894 195 22329ft 305kts
04-Oct-20 09:31 34.275446 -111.039688 195 22339ft 304kts
04-Oct-20 09:32 34.193588 -111.065562 195 22338ft 304kts
04-Oct-20 09:32 34.124681 -111.087515 195 21671ft 324kts
04-Oct-20 09:33 34.053835 -111.139617 254 19075ft 308kts
04-Oct-20 09:35 34.009899 -111.239379 226 14774ft 294kts
04-Oct-20 09:35 33.965242 -111.296275 227 13036ft 272kts
04-Oct-20 09:36 33.912815 -111.363207 227 11284ft 263kts
04-Oct-20 09:37 33.865680 -111.423296 227 11210ft 241kts
04-Oct-20 09:38 33.821697 -111.484449 235 11131ft 238kts
04-Oct-20 09:39 33.784236 -111.547982 235 11065ft 226kts
04-Oct-20 09:40 33.749082 -111.607268 235 9455ft 218kts
04-Oct-20 09:41 33.712797 -111.667661 234 8033ft 231kts
04-Oct-20 09:42 33.674497 -111.731949 234 8027ft 236kts
04-Oct-20 09:43 33.634757 -111.799258 234 8035ft 254kts
04-Oct-20 09:44 33.594990 -111.870064 250 8017ft 256kts
04-Oct-20 09:45 33.571687 -111.950675 251 8032ft 255kts
04-Oct-20 09:46 33.548448 -112.029704 251 8025ft 246kts
04-Oct-20 09:47 33.525495 -112.106775 251 8020ft 244kts
04-Oct-20 09:48 33.504067 -112.182573 251 7300ft 233kts
04-Oct-20 09:49 33.484315 -112.257205 251 4845ft 228kts
04-Oct-20 09:50 33.467212 -112.322444 251 4016ft 198kts
04-Oct-20 09:51 33.450802 -112.385925 251 4018ft 201kts
04-Oct-20 09:52 33.434174 -112.450498 251 4013ft 203kts
04-Oct-20 09:53 33.417540 -112.515157 251 4011ft 203kts
04-Oct-20 09:54 33.381802 -112.539506 124 4009ft 196kts
04-Oct-20 09:55 33.387863 -112.474435 78 4014ft 202kts
04-Oct-20 09:56 33.401233 -112.408809 77 4015ft 203kts
04-Oct-20 09:57 33.420658 -112.345521 66 4021ft 203kts
04-Oct-20 09:58 33.429201 -112.280097 94 4014ft 196kts
04-Oct-20 09:59 33.429147 -112.222586 92 4060ft 148kts
04-Oct-20 10:00 33.429051 -112.178129 92 3573ft 126kts
04-Oct-20 10:01 33.428979 -112.136828 92 2925ft 123kts
04-Oct-20 10:02 33.428920 -112.095882 92 2331ft 111kts
04-Oct-20 10:03 33.428889 -112.063807 91 1749ft 85kts
04-Oct-20 10:04 33.428892 -112.036572 93 1326ft 83kts
04-Oct-20 10:05 33.428855 -112.017552 89 1115ft 18kts
04-Oct-20 10:06 33.426820 -112.016397 258 1112ft 0kts
04-Oct-20 10:07 33.426820 -112.016397 258 1112ft 0kts
04-Oct-20 10:08 33.426820 -112.016397 258 1112ft 0kts
04-Oct-20 10:09 33.426820 -112.016397 258 1112ft 0kts
04-Oct-20 10:10 33.426820 -112.016397 258 1112ft 0kts
04-Oct-20 10:11 33.426820 -112.016397 258 1112ft 0kts
04-Oct-20 10:12 33.426820 -112.016397 258 1112ft 0kts
04-Oct-20 10:13 33.426820 -112.016397 258 1112ft 0kts
04-Oct-20 10:14 33.426820 -112.016397 258 1112ft 0kts
04-Oct-20 10:15 33.426820 -112.016397 258 1112ft 0kts
04-Oct-20 10:16 33.426820 -112.016397 258 1112ft 0kts
04-Oct-20 10:17 33.426820 -112.016397 258 1112ft 0kts
04-Oct-20 10:18 33.426820 -112.016397 258 1112ft 0kts
04-Oct-20 10:19 33.426820 -112.016397 258 1112ft 0kts

Navigation Log

Ident Type
Flight plan parsing failed, navigation log unavailable